Impacts TAF Board
For situational awareness. Not to be used for flight planning purposes.
IDs:

KBWI - Baltimore-Washington, MD, US

Issued at 0540 UTC 24 Jan 2019
Updated at 0605 UTC 24 Jan 2019
Potential Impact None Slight Moderate High
Time<<24/19Z 24/20Z 24/21Z 24/22Z 24/23Z 25/00Z 25/01Z 25/02Z 25/03Z 25/04Z 25/05Z 25/06Z 25/07Z>>
Type PRVL PRVL PRVL PRVL PRVL PRVL PRVL PRVL PRVL PRVL PRVL PRVL PRVL
VIS >6 >6 >6 >6 >6 >6 >6 >6 >6 >6 >6 >6 >6
CIG 40 60 60 60 60 60 60 60 60 60 60 60 60
Cover OVC BKN BKN BKN BKN BKN BKN BKN BKN BKN BKN BKN BKN
FltCat VFR VFR VFR VFR VFR VFR VFR VFR VFR VFR VFR VFR VFR
WX -- -- -- -- -- -- -- -- -- -- -- -- --
WDir 300 300 300 300 300 300 300 300 300 300 300 300 300
WSpd 17 18 18 18 18 18 18 18 18 18 18 18 18
WGst 34 36 36 36 36 36 36 36 36 36 36 36 36
Raw TAF
KBWI 240540Z 2406/2512 18008G17KT 6SM -RA BKN015 OVC025 WS020/19040KT
  FM241200 18018G36KT 2SM +RA BKN003 OVC025 WS020/18050KT
  FM241400 22014G29KT 1 1/2SM +RA BKN008 OVC025
  FM241600 27015G32KT 1SM -RA BKN010 OVC025
  FM241800 30017G34KT P6SM SCT025 OVC040
  FM242000 30018G36KT P6SM SCT035 BKN060
  FM251100 25008KT P6SM FEW040 SCT250


METAR Board
Radar Display
Forecast Discussion
For situational awareness. Not to be used for flight planning purposes.